Weather at The Farm Airport

Public forecast

Using degrees Fahrenheit for public forecast. Weather courtesy of forecast.io.

Closest aviation weather report (METAR) to The Farm Airport

Closest report is Chippewa Valley Regional Airport, 23.8 nm (44.0 km) NNE. Retrieved 2021/06/20 09:56 UTC (26 minutes ago):

KEAU 200956Z AUTO 00000KT 10SM CLR 13/11 A2973 RMK AO2 SLP062 T01330111

Closest aviation forecast (TAF) to The Farm Airport

Closest forecast is Chippewa Valley Regional Airport, 23.8 nm (44.0 km) NNE. Retrieved 2021/06/20 06:22 UTC (4 hours ago):

TAF KEAU 200520Z 2006/2106 VRB03KT P6SM SKC FM200800 13003KT P6SM BKN150 FM201500 16006KT P6SM -SHRA OVC070 FM201900 18006KT P6SM -SHRA OVC015 TEMPO 2021/2023 2SM +TSRA BR OVC008CB FM202300 32008KT P6SM OVC015 FM210200 32014G25KT P6SM BKN025